Time;durP1;ratioP1;P1;durP2;ratioP2;P2;SDS_P1;SDS_P2;PMS_P1;PMS_P2;Temp;Humidity;BMP_temperature;BMP_pressure;BME280_temperature;BME280_humidity;BME280_pressure;Samples;Min_cycle;Max_cycle;Signal;HPM_P1;HPM_P2
2023/05/11 00:00:06;;;;;;;10.03;8.30;;;13.20;1.00;;;;;;5080014;28;20398;-74
2023/05/11 00:02:32;;;;;;;12.87;8.33;;;13.20;1.00;;;;;;5096348;28;20188;-72
2023/05/11 00:04:58;;;;;;;12.03;8.33;;;13.20;1.00;;;;;;5077554;28;20456;-73
2023/05/11 00:07:24;;;;;;;11.97;8.20;;;13.20;1.00;;;;;;5075923;28;20690;-71
2023/05/11 00:09:50;;;;;;;8.27;6.83;;;13.30;1.00;;;;;;5092129;28;20416;-71
2023/05/11 00:12:16;;;;;;;9.70;8.37;;;13.30;1.00;;;;;;5080748;28;20441;-77
2023/05/11 00:14:41;;;;;;;8.37;7.53;;;13.30;1.00;;;;;;5077967;28;20496;-72
2023/05/11 00:17:07;;;;;;;9.07;7.20;;;13.30;1.00;;;;;;5077527;28;20174;-72
2023/05/11 00:19:33;;;;;;;10.43;7.63;;;13.30;1.00;;;;;;5059195;28;20662;-77
2023/05/11 00:22:05;;;;;;;12.03;7.90;;;13.30;1.00;;;;;;5074711;28;20170;-76
2023/05/11 00:24:31;;;;;;;14.33;7.20;;;13.20;1.00;;;;;;5059083;28;20657;-77
2023/05/11 00:26:56;;;;;;;9.87;8.10;;;13.20;1.00;;;;;;5074402;28;20423;-76
2023/05/11 00:29:22;;;;;;;9.70;8.27;;;13.20;1.00;;;;;;5075555;28;20514;-71
2023/05/11 00:31:48;;;;;;;11.57;8.03;;;13.20;1.00;;;;;;5056800;28;20185;-71
2023/05/11 00:34:15;;;;;;;11.97;7.67;;;13.20;1.00;;;;;;5075105;28;20190;-72
2023/05/11 00:36:41;;;;;;;10.03;7.70;;;13.10;1.00;;;;;;5075024;28;20395;-71
2023/05/11 00:39:08;;;;;;;11.80;7.90;;;13.20;1.00;;;;;;5075383;28;20396;-71
2023/05/11 00:41:34;;;;;;;7.97;7.20;;;13.20;1.00;;;;;;5089861;28;20876;-72
2023/05/11 00:44:00;;;;;;;10.20;7.80;;;13.20;1.00;;;;;;5095480;28;20479;-77
2023/05/11 00:46:36;;;;;;;12.80;8.50;;;13.20;1.00;;;;;;5075189;28;20912;-76
2023/05/11 00:49:02;;;;;;;11.53;8.30;;;13.20;1.00;;;;;;5057594;28;20487;-72
2023/05/11 00:51:29;;;;;;;11.50;7.40;;;13.20;1.00;;;;;;5073640;28;20383;-75
2023/05/11 00:53:55;;;;;;;11.63;8.83;;;13.20;1.00;;;;;;5074940;28;20194;-72
2023/05/11 00:56:21;;;;;;;11.07;7.50;;;13.20;1.00;;;;;;5074308;28;20420;-72
2023/05/11 00:58:47;;;;;;;9.93;8.13;;;13.20;1.00;;;;;;5055325;28;20412;-77
2023/05/11 01:01:16;;;;;;;9.20;8.30;;;13.20;1.00;;;;;;5054718;28;20850;-71
2023/05/11 01:03:42;;;;;;;13.63;8.20;;;13.20;1.00;;;;;;5074661;28;20479;-72
2023/05/11 01:06:15;;;;;;;12.80;9.63;;;13.20;1.00;;;;;;5074827;28;20466;-72
2023/05/11 01:09:08;;;;;;;10.20;8.37;;;13.20;1.00;;;;;;5075230;28;20937;-71
2023/05/11 01:11:41;;;;;;;11.37;8.47;;;13.20;1.00;;;;;;5072239;28;20786;-75
2023/05/11 01:14:26;;;;;;;13.60;8.90;;;13.20;1.00;;;;;;5054712;28;20758;-76
2023/05/11 01:16:58;;;;;;;13.40;8.80;;;13.20;1.00;;;;;;5090945;28;20430;-71
2023/05/11 01:19:52;;;;;;;12.87;9.23;;;13.20;1.00;;;;;;5072661;28;20404;-76
2023/05/11 01:22:46;;;;;;;13.47;9.10;;;13.20;1.00;;;;;;5053758;28;20900;-71
2023/05/11 01:25:40;;;;;;;14.40;9.50;;;13.10;1.00;;;;;;5056695;28;20546;-77
2023/05/11 01:28:25;;;;;;;13.43;9.97;;;13.10;1.00;;;;;;5076420;28;20464;-72
2023/05/11 01:31:01;;;;;;;12.73;10.00;;;13.10;1.00;;;;;;5079206;28;20420;-77
2023/05/11 01:33:51;;;;;;;13.13;10.37;;;13.00;1.00;;;;;;5074018;28;20410;-76
2023/05/11 01:36:19;;;;;;;14.40;11.40;;;13.00;1.00;;;;;;5074142;28;20398;-76
2023/05/11 01:38:47;;;;;;;13.80;10.40;;;13.00;1.00;;;;;;5083686;28;20934;-71
2023/05/11 01:41:18;;;;;;;13.20;9.10;;;13.00;1.00;;;;;;5083895;28;20431;-76
2023/05/11 01:43:47;;;;;;;13.23;10.13;;;13.00;1.00;;;;;;5093810;28;20418;-72
2023/05/11 01:46:15;;;;;;;14.87;10.60;;;13.00;1.00;;;;;;5080917;28;20542;-76
2023/05/11 01:48:45;;;;;;;13.67;9.77;;;12.90;1.00;;;;;;5074026;28;20382;-71
2023/05/11 01:54:00;;;;;;;14.23;10.50;;;13.00;1.00;;;;;;5044454;28;20517;-75
2023/05/11 01:56:27;;;;;;;14.73;10.20;;;13.00;1.00;;;;;;5090580;28;20436;-74
2023/05/11 01:58:55;;;;;;;16.10;11.57;;;13.00;1.00;;;;;;5076931;28;20436;-77
2023/05/11 02:01:22;;;;;;;13.57;10.67;;;13.00;1.00;;;;;;5069001;28;21031;-76
2023/05/11 02:03:51;;;;;;;17.83;11.23;;;13.00;1.00;;;;;;5094032;28;20501;-77
2023/05/11 02:06:20;;;;;;;18.50;11.50;;;13.00;1.00;;;;;;5079132;28;20451;-72
2023/05/11 02:08:49;;;;;;;14.90;9.70;;;13.00;1.00;;;;;;5073695;28;20462;-77
2023/05/11 02:11:17;;;;;;;15.00;10.43;;;13.10;1.00;;;;;;5071721;28;20456;-76
2023/05/11 02:13:45;;;;;;;18.03;10.80;;;13.10;1.00;;;;;;5068520;28;20797;-76
2023/05/11 02:16:13;;;;;;;16.93;10.17;;;13.00;1.00;;;;;;5072600;28;20404;-72
2023/05/11 02:18:40;;;;;;;15.00;9.63;;;13.00;1.00;;;;;;5073276;28;20420;-77
2023/05/11 02:21:08;;;;;;;16.70;10.40;;;13.10;1.00;;;;;;5071559;28;20973;-72
2023/05/11 02:23:36;;;;;;;14.20;10.37;;;13.10;1.00;;;;;;5073056;28;21066;-76
2023/05/11 02:26:04;;;;;;;16.80;11.30;;;13.10;1.00;;;;;;5073550;28;20456;-77
2023/05/11 02:28:33;;;;;;;16.80;10.93;;;13.10;1.00;;;;;;5079923;28;20909;-76
2023/05/11 02:31:04;;;;;;;19.33;12.07;;;13.10;1.00;;;;;;5079175;28;20432;-72
2023/05/11 02:33:42;;;;;;;17.50;11.83;;;13.10;1.00;;;;;;5072013;28;20952;-72
2023/05/11 02:36:09;;;;;;;16.70;10.70;;;13.10;1.00;;;;;;5072322;28;20396;-76
2023/05/11 02:38:37;;;;;;;19.13;10.73;;;13.10;1.00;;;;;;5079097;28;20393;-77
2023/05/11 02:41:11;;;;;;;17.67;11.87;;;13.10;1.00;;;;;;5078688;28;20464;-71
2023/05/11 02:43:42;;;;;;;18.73;11.20;;;13.10;1.00;;;;;;5073110;28;20463;-71
2023/05/11 02:46:13;;;;;;;16.97;11.50;;;13.10;1.00;;;;;;5071933;28;20413;-72
2023/05/11 02:48:45;;;;;;;21.17;11.87;;;13.10;1.00;;;;;;5072232;28;20985;-76
2023/05/11 02:51:13;;;;;;;17.43;10.40;;;13.00;1.00;;;;;;5071443;28;20431;-71
2023/05/11 02:53:42;;;;;;;18.40;10.07;;;13.00;1.00;;;;;;5072829;28;20407;-71
2023/05/11 02:56:08;;;;;;;18.90;11.50;;;13.00;1.00;;;;;;5073187;28;20721;-72
2023/05/11 02:58:34;;;;;;;20.07;11.67;;;13.10;1.00;;;;;;5062245;28;21003;-70
2023/05/11 03:01:01;;;;;;;22.43;11.70;;;12.90;1.00;;;;;;5079611;28;20407;-77
2023/05/11 03:03:27;;;;;;;19.90;11.60;;;12.90;1.00;;;;;;5073980;28;20438;-72
2023/05/11 03:05:53;;;;;;;25.27;12.07;;;12.90;1.00;;;;;;5073104;28;20401;-77
2023/05/11 03:08:19;;;;;;;20.07;11.73;;;12.90;1.00;;;;;;5072057;28;20490;-77
2023/05/11 03:10:45;;;;;;;20.40;13.00;;;13.00;1.00;;;;;;5053486;28;20185;-77
2023/05/11 03:13:12;;;;;;;21.27;11.57;;;13.00;1.00;;;;;;5078934;28;20306;-71
2023/05/11 03:15:39;;;;;;;21.90;12.83;;;13.00;1.00;;;;;;5093238;28;20407;-76
2023/05/11 03:18:06;;;;;;;23.10;11.03;;;13.00;1.00;;;;;;5078142;28;20427;-72
2023/05/11 03:20:35;;;;;;;26.90;12.37;;;13.00;1.00;;;;;;5070400;28;20500;-78
2023/05/11 03:23:01;;;;;;;21.50;11.43;;;13.00;1.00;;;;;;5054308;28;20499;-72
2023/05/11 03:25:28;;;;;;;15.33;10.10;;;13.00;1.00;;;;;;5071481;28;20435;-72
2023/05/11 03:27:56;;;;;;;16.90;10.67;;;12.90;1.00;;;;;;5073009;28;20394;-71
2023/05/11 03:30:22;;;;;;;22.47;11.87;;;12.90;1.00;;;;;;5066629;28;20829;-72
2023/05/11 03:32:49;;;;;;;20.33;10.97;;;12.90;1.00;;;;;;5072530;28;20933;-77
2023/05/11 03:35:14;;;;;;;21.17;11.07;;;12.90;1.00;;;;;;5071999;28;20444;-71
2023/05/11 03:37:42;;;;;;;17.53;10.27;;;12.90;1.00;;;;;;5072696;28;20383;-72
2023/05/11 03:40:10;;;;;;;22.77;11.43;;;13.00;1.00;;;;;;5070155;28;20804;-77
2023/05/11 03:42:38;;;;;;;16.97;10.67;;;13.00;1.00;;;;;;5072302;28;20523;-72
2023/05/11 03:45:09;;;;;;;19.63;10.97;;;13.00;1.00;;;;;;5071011;28;21038;-77
2023/05/11 03:47:37;;;;;;;18.57;10.47;;;13.00;1.00;;;;;;5072818;28;20415;-76
2023/05/11 03:50:04;;;;;;;21.60;12.40;;;13.00;1.00;;;;;;5092654;28;20879;-77
2023/05/11 03:52:30;;;;;;;19.40;10.83;;;13.00;1.00;;;;;;5076006;28;20425;-77
2023/05/11 03:54:56;;;;;;;20.50;12.07;;;13.00;1.00;;;;;;5076463;28;20462;-77
2023/05/11 03:57:24;;;;;;;20.70;10.80;;;13.00;1.00;;;;;;5096525;28;21190;-77
2023/05/11 04:00:12;;;;;;;22.20;11.70;;;13.00;1.00;;;;;;5078008;28;20504;-76
2023/05/11 04:02:38;;;;;;;18.33;10.23;;;13.00;1.00;;;;;;5042260;28;20443;-72
2023/05/11 04:05:09;;;;;;;20.73;12.23;;;13.00;1.00;;;;;;5077517;28;20461;-72
2023/05/11 04:07:37;;;;;;;22.17;11.37;;;13.10;1.00;;;;;;5095316;28;20386;-78
2023/05/11 04:10:04;;;;;;;23.57;12.03;;;13.00;1.00;;;;;;5074952;28;20396;-72
2023/05/11 04:12:30;;;;;;;18.50;10.80;;;13.00;1.00;;;;;;5084489;28;20430;-77
2023/05/11 04:14:56;;;;;;;18.77;10.37;;;13.00;1.00;;;;;;5072617;28;20395;-77
2023/05/11 04:17:29;;;;;;;25.03;11.40;;;13.00;1.00;;;;;;5075781;28;20182;-77
2023/05/11 04:19:55;;;;;;;21.57;11.50;;;13.00;1.00;;;;;;5075352;28;20205;-77
2023/05/11 04:22:22;;;;;;;19.40;11.93;;;13.00;1.00;;;;;;5074258;28;20824;-72
2023/05/11 04:24:47;;;;;;;16.77;10.77;;;13.00;1.00;;;;;;5075671;28;20547;-78
2023/05/11 04:27:15;;;;;;;18.03;11.70;;;13.10;1.00;;;;;;5075201;28;20503;-73
2023/05/11 04:29:43;;;;;;;19.73;11.13;;;13.10;1.00;;;;;;5075572;28;20189;-72
2023/05/11 04:32:09;;;;;;;20.00;11.70;;;13.10;1.00;;;;;;5075589;28;20399;-72
2023/05/11 04:34:37;;;;;;;27.43;13.33;;;13.20;1.00;;;;;;5075475;28;20827;-72
2023/05/11 04:37:06;;;;;;;24.93;13.00;;;13.10;1.00;;;;;;5075057;28;20170;-73
2023/05/11 04:39:32;;;;;;;20.70;12.57;;;13.20;1.00;;;;;;5074159;28;20440;-72
2023/05/11 04:41:59;;;;;;;23.97;13.90;;;13.20;1.00;;;;;;5054810;28;20411;-78
2023/05/11 04:44:27;;;;;;;32.90;16.10;;;13.20;1.00;;;;;;5075211;28;20876;-75
2023/05/11 04:46:54;;;;;;;28.50;14.43;;;13.20;1.00;;;;;;5075204;28;20800;-77
2023/05/11 04:49:20;;;;;;;27.83;16.10;;;13.20;1.00;;;;;;5075067;28;20416;-78
2023/05/11 04:51:46;;;;;;;27.27;15.60;;;13.20;1.00;;;;;;5073435;28;20414;-78
2023/05/11 04:54:15;;;;;;;29.67;15.37;;;13.20;1.00;;;;;;5075202;28;20448;-78
2023/05/11 04:56:41;;;;;;;30.13;14.70;;;13.20;1.00;;;;;;5057099;28;20442;-79
2023/05/11 04:59:20;;;;;;;;;;;;;;;;;;;;;
2023/05/11 05:01:56;;;;;;;;;;;;;;;;;;;;;
2023/05/11 05:04:47;;;;;;;31.70;15.77;;;13.10;1.00;;;;;;5092136;28;20433;-72
2023/05/11 05:07:15;;;;;;;26.80;14.97;;;13.20;1.00;;;;;;5095233;28;20403;-77
2023/05/11 05:09:41;;;;;;;28.57;15.50;;;13.20;1.00;;;;;;5073759;28;20659;-78
2023/05/11 05:12:07;;;;;;;29.60;15.17;;;13.20;1.00;;;;;;5072613;28;20507;-78
2023/05/11 05:14:54;;;;;;;32.10;16.47;;;13.20;1.00;;;;;;5073913;28;20497;-77
2023/05/11 05:17:20;;;;;;;32.57;15.37;;;13.30;1.00;;;;;;5077387;28;20549;-78
2023/05/11 05:19:46;;;;;;;36.70;16.40;;;13.30;1.00;;;;;;5094847;28;20497;-78
2023/05/11 05:22:15;;;;;;;29.77;14.43;;;13.30;1.00;;;;;;5074617;28;20443;-73
2023/05/11 05:24:41;;;;;;;25.67;14.77;;;13.30;1.00;;;;;;5074237;28;20205;-78
2023/05/11 05:27:07;;;;;;;34.30;17.37;;;13.40;1.00;;;;;;5077771;28;20943;-73
2023/05/11 05:29:33;;;;;;;28.23;15.20;;;13.40;1.00;;;;;;5094714;28;20430;-73
2023/05/11 05:31:59;;;;;;;26.30;14.33;;;13.30;1.00;;;;;;5078995;28;20926;-73
2023/05/11 05:34:25;;;;;;;27.80;14.33;;;13.20;1.00;;;;;;5094193;28;20379;-72
2023/05/11 05:36:54;;;;;;;29.37;14.80;;;13.10;1.00;;;;;;5094100;28;20388;-73
2023/05/11 05:39:20;;;;;;;31.37;14.50;;;13.20;1.00;;;;;;5073352;28;20178;-73
2023/05/11 05:41:49;;;;;;;25.47;13.70;;;13.20;1.00;;;;;;5054345;28;20432;-78
2023/05/11 05:44:15;;;;;;;29.50;13.50;;;13.30;1.00;;;;;;5073978;28;20474;-77
2023/05/11 05:46:44;;;;;;;28.07;14.53;;;13.30;1.00;;;;;;5074371;28;20474;-71
2023/05/11 05:49:10;;;;;;;24.67;14.03;;;13.40;1.00;;;;;;5073945;28;20181;-77
2023/05/11 05:51:36;;;;;;;24.03;12.37;;;13.30;1.00;;;;;;5081091;28;20478;-70
2023/05/11 05:54:02;;;;;;;25.03;13.90;;;13.20;1.00;;;;;;5055646;28;20456;-78
2023/05/11 06:00:12;;;;;;;29.73;15.50;;;13.30;1.00;;;;;;5050468;28;20186;-77
2023/05/11 06:02:38;;;;;;;27.47;14.07;;;13.30;1.00;;;;;;5071720;28;20448;-77
2023/05/11 06:05:07;;;;;;;25.73;12.83;;;13.40;1.00;;;;;;5072498;28;20449;-71
2023/05/11 06:07:33;;;;;;;27.47;14.70;;;13.40;1.00;;;;;;5072953;28;20420;-78
2023/05/11 06:09:59;;;;;;;25.00;12.77;;;13.40;1.00;;;;;;5093544;28;20396;-78
2023/05/11 06:12:25;;;;;;;25.13;13.77;;;13.40;1.00;;;;;;5072755;28;20967;-71
2023/05/11 06:14:51;;;;;;;27.63;14.60;;;13.40;1.00;;;;;;5072867;28;20464;-78
2023/05/11 06:17:20;;;;;;;29.97;14.70;;;13.50;1.00;;;;;;5073556;28;20809;-77
2023/05/11 06:19:46;;;;;;;30.70;14.80;;;13.40;1.00;;;;;;5073490;28;20173;-73
2023/05/11 06:22:33;;;;;;;31.90;13.90;;;13.30;1.00;;;;;;5071694;28;20451;-76
2023/05/11 06:24:59;;;;;;;26.00;12.30;;;13.20;1.00;;;;;;5073167;28;21076;-72
2023/05/11 06:27:25;;;;;;;22.43;13.67;;;13.10;1.00;;;;;;5082442;28;20497;-72
2023/05/11 06:29:51;;;;;;;28.70;13.90;;;13.20;1.00;;;;;;5072729;28;20228;-77
2023/05/11 06:32:17;;;;;;;25.03;14.10;;;13.10;1.00;;;;;;5072491;28;20437;-73
2023/05/11 06:34:43;;;;;;;22.70;13.87;;;13.10;1.00;;;;;;5054982;28;20478;-72
2023/05/11 06:37:09;;;;;;;25.53;12.90;;;13.20;1.00;;;;;;5073307;28;20412;-72
2023/05/11 06:39:38;;;;;;;27.03;15.03;;;13.30;1.00;;;;;;5054263;28;20185;-72
2023/05/11 06:42:04;;;;;;;27.17;15.40;;;13.30;1.00;;;;;;5066020;28;20494;-73
2023/05/11 06:44:33;;;;;;;28.13;14.77;;;13.20;1.00;;;;;;5089348;28;20572;-73
2023/05/11 06:46:59;;;;;;;28.63;13.93;;;13.20;1.00;;;;;;5072202;28;20407;-78
2023/05/11 06:49:36;;;;;;;;;;;;;;;;;;;;;
2023/05/11 06:53:04;;;;;;;30.47;13.70;;;13.00;1.00;;;;;;5071697;28;20382;-77
2023/05/11 06:55:30;;;;;;;39.03;16.70;;;13.00;1.00;;;;;;5072509;28;20951;-78
2023/05/11 06:57:56;;;;;;;33.60;15.60;;;13.10;1.00;;;;;;5073151;28;20440;-78
2023/05/11 07:00:22;;;;;;;28.70;15.57;;;13.00;1.00;;;;;;5071591;28;20443;-78
2023/05/11 07:02:48;;;;;;;29.20;16.23;;;13.10;1.00;;;;;;5073076;28;20194;-73
2023/05/11 07:05:16;;;;;;;32.07;15.43;;;13.10;1.00;;;;;;5073231;28;20212;-78
2023/05/11 07:07:42;;;;;;;34.20;16.57;;;13.20;1.00;;;;;;5055097;28;20265;-72
2023/05/11 07:10:09;;;;;;;27.50;14.20;;;13.20;1.00;;;;;;5071216;28;21004;-73
2023/05/11 07:12:36;;;;;;;26.40;14.50;;;13.20;1.00;;;;;;5072807;28;20434;-73
2023/05/11 07:15:20;;;;;;;32.70;14.27;;;13.20;1.00;;;;;;5072986;28;20946;-72
2023/05/11 07:17:46;;;;;;;28.63;14.33;;;13.40;4.60;;;;;;5072641;28;20382;-78
2023/05/11 07:20:12;;;;;;;29.33;13.40;;;13.30;1.00;;;;;;5072006;28;20904;-73
2023/05/11 07:22:38;;;;;;;28.53;12.07;;;13.30;1.00;;;;;;5055720;28;20436;-73
2023/05/11 07:25:15;;;;;;;;;;;;;;;;;;;;;
2023/05/11 07:27:44;;;;;;;24.90;13.43;;;13.40;1.00;;;;;;5076506;28;20441;-78
2023/05/11 07:30:11;;;;;;;28.83;12.30;;;13.20;1.00;;;;;;5075760;28;20427;-73
2023/05/11 07:32:47;;;;;;;29.47;12.70;;;13.20;1.00;;;;;;5076532;28;20980;-73
2023/05/11 07:35:16;;;;;;;30.13;11.83;;;13.20;1.00;;;;;;5076115;28;20916;-77
2023/05/11 07:38:12;;;;;;;28.67;13.70;;;13.20;1.00;;;;;;5076593;28;20407;-72
2023/05/11 07:40:38;;;;;;;24.73;11.60;;;13.20;1.00;;;;;;5049318;28;20443;-73
2023/05/11 07:43:07;;;;;;;23.30;11.20;;;13.20;1.00;;;;;;5056382;28;21007;-72
2023/05/11 07:45:33;;;;;;;26.73;11.73;;;13.30;3.50;;;;;;5056454;28;20179;-72
2023/05/11 07:47:59;;;;;;;23.30;13.00;;;13.30;1.00;;;;;;5056453;28;20492;-72
2023/05/11 07:50:53;;;;;;;21.77;12.77;;;13.30;1.00;;;;;;5037347;28;20755;-78
2023/05/11 07:53:56;;;;;;;27.43;13.13;;;13.30;1.00;;;;;;5053694;28;20444;-78
2023/05/11 07:56:22;;;;;;;22.90;11.63;;;13.30;1.00;;;;;;5076261;28;20836;-73
2023/05/11 07:58:56;;;;;;;22.73;12.53;;;13.40;1.00;;;;;;5058053;28;20765;-78
2023/05/11 08:01:32;;;;;;;;;;;;;;;;;;;;;
2023/05/11 08:07:31;;;;;;;19.30;11.57;;;13.50;1.00;;;;;;5056001;28;20778;-72
2023/05/11 08:10:08;;;;;;;20.37;12.80;;;13.40;1.00;;;;;;5050147;28;20848;-77
2023/05/11 08:12:39;;;;;;;18.37;10.83;;;13.30;1.00;;;;;;5074877;28;20919;-77
2023/05/11 08:15:05;;;;;;;21.97;10.60;;;13.40;1.00;;;;;;5075679;28;20432;-75
2023/05/11 08:17:34;;;;;;;24.03;12.87;;;13.50;1.00;;;;;;5075565;28;20424;-77
2023/05/11 08:22:52;;;;;;;26.70;11.93;;;13.40;1.00;;;;;;5032781;28;20536;-76
2023/05/11 08:25:18;;;;;;;26.93;12.07;;;13.30;1.00;;;;;;5053363;28;20521;-71
2023/05/11 08:27:47;;;;;;;20.80;10.50;;;13.30;1.00;;;;;;5075567;28;20417;-77
2023/05/11 08:30:13;;;;;;;20.70;11.63;;;13.30;1.00;;;;;;5074419;28;20379;-72
2023/05/11 08:32:41;;;;;;;23.23;13.83;;;13.20;1.00;;;;;;5055473;28;20429;-71
2023/05/11 08:35:07;;;;;;;24.23;11.47;;;13.20;1.00;;;;;;5054145;28;20731;-72
2023/05/11 08:37:36;;;;;;;28.37;12.90;;;13.30;1.00;;;;;;5077447;28;20421;-71
2023/05/11 08:40:09;;;;;;;21.73;11.70;;;13.40;2.20;;;;;;5055735;28;20432;-73
2023/05/11 08:42:47;;;;;;;20.70;11.30;;;13.50;6.30;;;;;;5080270;28;20788;-76
2023/05/11 08:45:20;;;;;;;23.50;10.90;;;13.50;8.60;;;;;;5094148;28;20430;-75
2023/05/11 08:47:47;;;;;;;23.97;11.10;;;13.60;11.70;;;;;;5082166;28;20431;-77
2023/05/11 08:50:13;;;;;;;19.50;11.03;;;13.50;1.00;;;;;;5058123;28;20396;-78
2023/05/11 08:52:39;;;;;;;19.63;10.73;;;13.60;2.40;;;;;;5071153;28;20952;-71
2023/05/11 08:55:11;;;;;;;23.40;11.53;;;13.60;1.00;;;;;;5072876;28;20432;-72
2023/05/11 08:57:42;;;;;;;19.03;11.27;;;13.40;1.00;;;;;;5072629;28;20535;-72
2023/05/11 09:00:09;;;;;;;22.00;12.80;;;13.30;1.00;;;;;;5055498;28;20434;-72
2023/05/11 09:02:35;;;;;;;26.43;12.77;;;13.30;1.00;;;;;;5074700;28;20395;-77
2023/05/11 09:05:03;;;;;;;20.70;11.63;;;13.30;1.00;;;;;;5083483;28;20978;-77
2023/05/11 09:07:29;;;;;;;25.07;13.00;;;13.20;4.80;;;;;;5094711;28;20174;-77
2023/05/11 09:09:55;;;;;;;28.67;13.67;;;13.30;10.60;;;;;;5086035;28;20507;-75
2023/05/11 09:12:27;;;;;;;29.73;13.73;;;13.20;10.50;;;;;;5073502;28;20915;-71
2023/05/11 09:14:53;;;;;;;34.23;13.77;;;13.20;22.00;;;;;;5074479;28;20949;-72
2023/05/11 09:17:19;;;;;;;31.07;13.53;;;13.40;35.50;;;;;;5074239;28;20405;-73
2023/05/11 09:20:05;;;;;;;21.53;12.30;;;13.30;35.40;;;;;;5078751;28;20382;-77
2023/05/11 09:22:32;;;;;;;24.10;13.10;;;13.30;36.60;;;;;;5094471;28;20401;-72
2023/05/11 09:25:01;;;;;;;22.93;13.50;;;13.30;45.10;;;;;;5082421;28;20551;-77
2023/05/11 09:27:31;;;;;;;23.50;13.13;;;13.30;57.60;;;;;;5073990;28;20393;-72
2023/05/11 09:30:08;;;;;;;22.20;13.67;;;13.30;64.10;;;;;;5073636;28;20426;-72
2023/05/11 09:32:47;;;;;;;23.70;10.90;;;13.30;66.10;;;;;;5073287;28;20417;-77
2023/05/11 09:35:31;;;;;;;21.40;12.20;;;13.30;65.40;;;;;;5073588;28;20430;-77
2023/05/11 09:37:57;;;;;;;24.80;12.17;;;13.30;64.90;;;;;;5073763;28;20404;-73
2023/05/11 09:40:25;;;;;;;23.33;10.97;;;13.30;73.90;;;;;;5088144;28;20515;-77
2023/05/11 09:42:54;;;;;;;18.30;9.80;;;13.30;70.90;;;;;;5094016;28;20419;-74
2023/05/11 09:45:37;;;;;;;16.93;10.50;;;13.30;72.80;;;;;;5078184;28;20448;-73
2023/05/11 09:48:05;;;;;;;16.50;10.00;;;13.30;78.50;;;;;;5071895;28;20434;-73
2023/05/11 09:50:34;;;;;;;18.67;9.60;;;13.40;83.10;;;;;;5072387;28;20442;-77
2023/05/11 09:53:42;;;;;;;;;;;;;;;;;;;;;
2023/05/11 09:56:41;;;;;;;16.27;9.53;;;13.30;67.90;;;;;;5073185;28;20411;-72
2023/05/11 09:59:07;;;;;;;13.40;8.50;;;13.30;65.20;;;;;;5053505;28;20413;-73
2023/05/11 10:02:06;;;;;;;15.60;9.67;;;13.40;66.10;;;;;;5054924;28;20436;-73
2023/05/11 10:04:32;;;;;;;15.77;10.30;;;13.40;57.30;;;;;;5089489;28;20567;-78
2023/05/11 10:06:58;;;;;;;16.17;10.17;;;13.20;43.40;;;;;;5083350;28;20420;-77
2023/05/11 10:09:26;;;;;;;20.07;11.23;;;13.10;44.70;;;;;;5073311;28;20376;-73
2023/05/11 10:11:55;;;;;;;16.10;8.87;;;13.10;57.70;;;;;;5081865;28;20775;-77
2023/05/11 10:14:22;;;;;;;18.80;10.77;;;13.10;63.00;;;;;;5075331;28;20463;-74
2023/05/11 10:16:49;;;;;;;21.27;9.30;;;13.10;70.90;;;;;;5084236;28;20420;-77
2023/05/11 10:19:16;;;;;;;19.00;10.93;;;13.00;68.00;;;;;;5073243;28;20411;-74
2023/05/11 10:21:42;;;;;;;15.67;8.97;;;13.10;76.20;;;;;;5071138;28;20461;-77
2023/05/11 10:24:09;;;;;;;18.87;9.93;;;13.00;79.30;;;;;;5074828;28;20434;-73
2023/05/11 10:26:36;;;;;;;16.90;10.13;;;13.00;82.90;;;;;;5087006;28;20478;-77
2023/05/11 10:29:27;;;;;;;19.93;9.80;;;13.00;82.80;;;;;;5073138;28;20367;-74
2023/05/11 10:31:57;;;;;;;18.57;11.27;;;13.10;88.40;;;;;;5048415;28;20391;-76
2023/05/11 10:34:23;;;;;;;17.27;9.70;;;13.00;92.40;;;;;;5075166;28;20374;-74
2023/05/11 10:36:55;;;;;;;17.37;10.23;;;13.00;96.30;;;;;;5082156;28;20420;-73
2023/05/11 10:39:21;;;;;;;18.03;9.97;;;13.10;99.90;;;;;;5072857;28;20399;-73
2023/05/11 10:42:00;;;;;;;14.30;8.70;;;13.20;99.90;;;;;;5071827;28;20448;-74
2023/05/11 10:44:45;;;;;;;12.87;8.93;;;13.40;99.90;;;;;;5083732;28;20947;-73
2023/05/11 10:47:56;;;;;;;9.27;8.20;;;13.50;99.90;;;;;;5071785;28;20494;-73
2023/05/11 10:53:54;;;;;;;13.37;8.97;;;13.60;99.90;;;;;;5072941;28;20736;-77
2023/05/11 10:56:39;;;;;;;12.40;7.80;;;13.50;99.90;;;;;;5072394;28;20413;-78
2023/05/11 10:59:29;;;;;;;15.70;9.27;;;13.60;99.90;;;;;;5075008;28;20897;-74
2023/05/11 11:01:57;;;;;;;15.07;10.83;;;13.70;99.90;;;;;;5075030;28;20507;-73
2023/05/11 11:04:24;;;;;;;18.10;11.47;;;13.90;99.90;;;;;;5076645;28;20535;-77
2023/05/11 11:07:12;;;;;;;21.80;9.93;;;14.00;99.90;;;;;;5080553;28;20897;-73
2023/05/11 11:10:15;;;;;;;18.33;10.53;;;14.00;99.90;;;;;;5076576;28;20935;-76
2023/05/11 11:13:41;;;;;;;23.83;11.10;;;14.00;98.70;;;;;;5076317;28;20444;-73
2023/05/11 11:16:48;;;;;;;14.27;10.00;;;14.20;99.90;;;;;;5070407;28;21021;-77
2023/05/11 11:19:29;;;;;;;14.00;9.57;;;14.40;99.90;;;;;;5074103;28;20422;-72
2023/05/11 11:22:02;;;;;;;15.50;9.27;;;14.60;99.90;;;;;;5075413;28;20404;-77
2023/05/11 11:24:37;;;;;;;18.83;9.53;;;14.80;96.80;;;;;;5086029;28;20451;-73
2023/05/11 11:27:04;;;;;;;14.27;9.50;;;15.00;84.40;;;;;;5096790;28;20395;-73
2023/05/11 11:29:31;;;;;;;15.57;10.10;;;15.10;66.10;;;;;;5071077;28;20431;-72
2023/05/11 11:32:22;;;;;;;14.83;9.57;;;15.20;26.90;;;;;;5095336;28;20507;-72
2023/05/11 11:34:51;;;;;;;13.33;9.00;;;15.20;1.00;;;;;;5054303;28;20948;-73
2023/05/11 11:37:19;;;;;;;16.03;10.70;;;15.40;1.00;;;;;;5076232;28;20411;-76
2023/05/11 11:39:53;;;;;;;13.20;9.57;;;15.60;1.00;;;;;;5087429;28;20472;-73
2023/05/11 11:42:40;;;;;;;15.37;10.30;;;15.80;1.00;;;;;;5091313;28;20452;-77
2023/05/11 11:45:39;;;;;;;15.83;9.97;;;15.90;1.00;;;;;;5076004;28;20892;-73
2023/05/11 11:48:11;;;;;;;23.97;15.10;;;16.00;1.00;;;;;;5042280;28;20417;-72
2023/05/11 11:51:01;;;;;;;23.93;14.63;;;16.30;1.00;;;;;;5092360;28;20408;-76
2023/05/11 11:56:49;;;;;;;17.50;11.30;;;16.80;1.00;;;;;;5083740;28;20843;-72
2023/05/11 11:59:20;;;;;;;21.50;11.83;;;17.20;1.00;;;;;;5084394;28;20818;-72
2023/05/11 12:01:51;;;;;;;17.00;11.70;;;17.50;1.00;;;;;;5094860;28;20880;-76
2023/05/11 12:07:51;;;;;;;21.53;12.90;;;17.50;1.00;;;;;;5013682;28;20418;-73
2023/05/11 12:10:19;;;;;;;17.90;12.40;;;17.50;99.90;;;;;;5008511;28;20422;-72
2023/05/11 12:18:38;;;;;;;21.80;13.40;;;17.70;99.90;;;;;;4955132;28;20509;-76
2023/05/11 12:21:04;;;;;;;18.67;12.70;;;17.80;99.90;;;;;;5055849;28;20416;-72
2023/05/11 12:23:49;;;;;;;21.23;12.90;;;17.90;99.90;;;;;;5095065;28;20900;-75
2023/05/11 12:26:20;;;;;;;18.83;12.80;;;18.10;99.90;;;;;;5091008;28;20436;-76
2023/05/11 12:29:40;;;;;;;21.23;13.43;;;18.40;99.90;;;;;;5095498;28;20404;-75
2023/05/11 12:32:45;;;;;;;21.20;12.97;;;18.80;99.90;;;;;;4994276;28;20451;-76
2023/05/11 12:35:15;;;;;;;17.73;13.63;;;19.20;99.90;;;;;;4990330;28;20518;-76
2023/05/11 12:37:45;;;;;;;24.87;14.43;;;19.30;99.90;;;;;;5087328;28;20574;-74
2023/05/11 12:40:28;;;;;;;22.50;14.27;;;19.20;99.90;;;;;;5071172;28;20892;-76
2023/05/11 12:43:00;;;;;;;22.10;14.10;;;18.80;99.90;;;;;;5073670;28;20439;-75
2023/05/11 12:45:28;;;;;;;24.20;14.43;;;18.70;99.90;;;;;;5074358;28;20502;-72
2023/05/11 12:47:55;;;;;;;22.60;15.90;;;18.80;99.90;;;;;;5074883;28;20409;-76
2023/05/11 12:50:24;;;;;;;21.90;14.57;;;18.90;99.90;;;;;;5072918;28;20424;-76
2023/05/11 12:53:13;;;;;;;25.87;16.47;;;19.00;99.90;;;;;;5056408;28;20999;-72
2023/05/11 12:55:40;;;;;;;22.53;15.47;;;19.20;99.90;;;;;;5057856;28;20527;-76
2023/05/11 12:58:33;;;;;;;23.73;17.03;;;19.40;99.90;;;;;;5074428;28;20462;-73
2023/05/11 13:01:07;;;;;;;28.67;17.37;;;19.70;99.90;;;;;;5073206;28;20932;-72
2023/05/11 13:03:34;;;;;;;26.17;16.50;;;20.20;99.90;;;;;;5074312;28;20438;-76
2023/05/11 13:06:10;;;;;;;24.73;18.00;;;20.10;99.90;;;;;;5093349;28;20474;-76
2023/05/11 13:12:20;;;;;;;27.53;18.77;;;20.30;99.90;;;;;;4979064;28;20909;-72
2023/05/11 13:14:51;;;;;;;25.03;18.10;;;19.90;95.70;;;;;;5052575;28;20434;-73
2023/05/11 13:17:35;;;;;;;30.63;20.93;;;19.80;95.60;;;;;;5093952;28;20502;-73
2023/05/11 13:23:30;;;;;;;30.30;22.13;;;20.10;99.90;;;;;;5073549;28;20460;-73
2023/05/11 13:25:56;;;;;;;28.90;22.17;;;20.20;95.80;;;;;;5054108;28;20461;-76
2023/05/11 13:28:23;;;;;;;29.60;19.97;;;20.30;91.30;;;;;;5036491;28;20444;-72
2023/05/11 13:30:53;;;;;;;25.27;19.33;;;20.60;93.70;;;;;;5072021;28;20223;-76
2023/05/11 13:33:19;;;;;;;29.83;21.53;;;21.30;89.20;;;;;;5060961;28;20460;-76
2023/05/11 13:35:45;;;;;;;24.50;19.27;;;21.60;65.20;;;;;;5073123;28;20927;-72
2023/05/11 13:38:11;;;;;;;25.10;19.00;;;22.00;34.60;;;;;;5073786;28;20417;-72
2023/05/11 13:40:38;;;;;;;27.47;18.37;;;22.80;29.20;;;;;;5072980;28;20917;-75